Wauconda, Illinois
Current Conditions -  °F | °C
As of 4:52 PM on Saturday 20 Dec 2014 (Local Time) from KPWK Reporting Station
Overcast Overcast  
Wind Chill: 29°   Ceiling: 6000
Heat Index: 33°   Visibility: 9mi
Dew Point: 24°   Wind: 5mph
Humidity: 70%   Direction: 200°SSW
Pressure: 30.27"   Gusts: NA
Location:  42.26°N, 88.14°W
Report Text: KPWK 202252Z 20004KT 9SM FEW045 OVC060 01/M04 A3027 RMK AO2 SLP257 T00061044
Loading
Personal Weather Stations






























Interactive Weather Map New forecast layout! Learn more

10-Day Weather Forecast

Advertisements
Track Severe Weather on mobile